sensor_id;sensor_type;location;lat;lon;timestamp;P1;durP1;ratioP1;P2;durP2;ratioP2
33266;SDS011;19638;49.080;11.896;2023-09-18T00:01:19;8.18;;;6.82;;
33266;SDS011;19638;49.080;11.896;2023-09-18T00:05:24;7.82;;;6.18;;
33266;SDS011;19638;49.080;11.896;2023-09-18T00:09:30;8.40;;;6.18;;
33266;SDS011;19638;49.080;11.896;2023-09-18T00:13:35;8.07;;;6.20;;
33266;SDS011;19638;49.080;11.896;2023-09-18T00:17:38;10.45;;;6.25;;
33266;SDS011;19638;49.080;11.896;2023-09-18T00:21:41;7.85;;;6.72;;
33266;SDS011;19638;49.080;11.896;2023-09-18T00:25:48;7.32;;;6.32;;
33266;SDS011;19638;49.080;11.896;2023-09-18T00:29:52;9.35;;;6.80;;
33266;SDS011;19638;49.080;11.896;2023-09-18T00:33:55;7.68;;;6.63;;
33266;SDS011;19638;49.080;11.896;2023-09-18T00:37:58;10.38;;;6.90;;
33266;SDS011;19638;49.080;11.896;2023-09-18T00:42:05;8.15;;;6.88;;
33266;SDS011;19638;49.080;11.896;2023-09-18T00:46:10;7.72;;;6.90;;
33266;SDS011;19638;49.080;11.896;2023-09-18T00:50:14;7.70;;;6.53;;
33266;SDS011;19638;49.080;11.896;2023-09-18T00:54:20;8.15;;;6.75;;
33266;SDS011;19638;49.080;11.896;2023-09-18T00:58:23;8.05;;;6.53;;
33266;SDS011;19638;49.080;11.896;2023-09-18T01:02:31;7.90;;;6.80;;
33266;SDS011;19638;49.080;11.896;2023-09-18T01:06:34;8.05;;;6.93;;
33266;SDS011;19638;49.080;11.896;2023-09-18T01:10:40;8.88;;;7.53;;
33266;SDS011;19638;49.080;11.896;2023-09-18T01:15:00;10.30;;;7.65;;
33266;SDS011;19638;49.080;11.896;2023-09-18T01:19:10;9.73;;;7.97;;
33266;SDS011;19638;49.080;11.896;2023-09-18T01:23:22;8.95;;;6.93;;
33266;SDS011;19638;49.080;11.896;2023-09-18T01:27:27;9.48;;;7.30;;
33266;SDS011;19638;49.080;11.896;2023-09-18T01:31:31;10.25;;;7.03;;
33266;SDS011;19638;49.080;11.896;2023-09-18T01:35:36;14.70;;;7.65;;
33266;SDS011;19638;49.080;11.896;2023-09-18T01:39:43;9.30;;;7.35;;
33266;SDS011;19638;49.080;11.896;2023-09-18T01:43:56;8.57;;;7.25;;
33266;SDS011;19638;49.080;11.896;2023-09-18T01:48:03;8.50;;;7.18;;
33266;SDS011;19638;49.080;11.896;2023-09-18T01:52:10;10.52;;;7.18;;
33266;SDS011;19638;49.080;11.896;2023-09-18T01:56:15;7.57;;;6.70;;
33266;SDS011;19638;49.080;11.896;2023-09-18T02:00:21;9.18;;;6.90;;
33266;SDS011;19638;49.080;11.896;2023-09-18T02:04:32;9.02;;;7.55;;
33266;SDS011;19638;49.080;11.896;2023-09-18T02:09:03;8.93;;;6.82;;
33266;SDS011;19638;49.080;11.896;2023-09-18T02:13:08;8.68;;;7.22;;
33266;SDS011;19638;49.080;11.896;2023-09-18T02:17:11;11.10;;;7.43;;
33266;SDS011;19638;49.080;11.896;2023-09-18T02:21:18;9.88;;;7.50;;
33266;SDS011;19638;49.080;11.896;2023-09-18T02:25:22;9.27;;;7.72;;
33266;SDS011;19638;49.080;11.896;2023-09-18T02:29:27;10.98;;;7.40;;
33266;SDS011;19638;49.080;11.896;2023-09-18T02:33:31;11.80;;;7.70;;
33266;SDS011;19638;49.080;11.896;2023-09-18T02:37:37;8.52;;;7.45;;
33266;SDS011;19638;49.080;11.896;2023-09-18T02:41:41;10.73;;;6.85;;
33266;SDS011;19638;49.080;11.896;2023-09-18T02:45:49;9.77;;;7.60;;
33266;SDS011;19638;49.080;11.896;2023-09-18T02:49:55;8.95;;;7.50;;
33266;SDS011;19638;49.080;11.896;2023-09-18T02:53:58;8.40;;;7.05;;
33266;SDS011;19638;49.080;11.896;2023-09-18T02:58:04;11.50;;;7.53;;
33266;SDS011;19638;49.080;11.896;2023-09-18T03:02:11;9.27;;;7.38;;
33266;SDS011;19638;49.080;11.896;2023-09-18T03:06:49;10.38;;;7.50;;
33266;SDS011;19638;49.080;11.896;2023-09-18T03:10:58;10.57;;;7.68;;
33266;SDS011;19638;49.080;11.896;2023-09-18T03:15:05;12.32;;;7.70;;
33266;SDS011;19638;49.080;11.896;2023-09-18T03:19:17;9.10;;;7.30;;
33266;SDS011;19638;49.080;11.896;2023-09-18T03:23:23;9.82;;;7.53;;
33266;SDS011;19638;49.080;11.896;2023-09-18T03:27:26;11.02;;;8.18;;
33266;SDS011;19638;49.080;11.896;2023-09-18T03:31:33;10.20;;;7.72;;
33266;SDS011;19638;49.080;11.896;2023-09-18T03:35:48;13.65;;;7.82;;
33266;SDS011;19638;49.080;11.896;2023-09-18T03:39:52;9.93;;;8.10;;
33266;SDS011;19638;49.080;11.896;2023-09-18T03:43:55;8.98;;;7.53;;
33266;SDS011;19638;49.080;11.896;2023-09-18T03:48:01;10.18;;;7.72;;
33266;SDS011;19638;49.080;11.896;2023-09-18T03:52:06;11.75;;;7.60;;
33266;SDS011;19638;49.080;11.896;2023-09-18T03:56:10;11.80;;;8.23;;
33266;SDS011;19638;49.080;11.896;2023-09-18T04:00:15;8.40;;;7.35;;
33266;SDS011;19638;49.080;11.896;2023-09-18T04:04:19;13.07;;;7.90;;
33266;SDS011;19638;49.080;11.896;2023-09-18T04:08:25;9.30;;;7.50;;
33266;SDS011;19638;49.080;11.896;2023-09-18T04:12:28;10.48;;;7.65;;
33266;SDS011;19638;49.080;11.896;2023-09-18T04:16:32;10.23;;;8.18;;
33266;SDS011;19638;49.080;11.896;2023-09-18T04:20:38;8.85;;;7.90;;
33266;SDS011;19638;49.080;11.896;2023-09-18T04:24:43;14.68;;;8.50;;
33266;SDS011;19638;49.080;11.896;2023-09-18T04:28:47;13.32;;;8.95;;
33266;SDS011;19638;49.080;11.896;2023-09-18T04:32:51;11.15;;;8.75;;
33266;SDS011;19638;49.080;11.896;2023-09-18T04:36:56;9.85;;;8.30;;
33266;SDS011;19638;49.080;11.896;2023-09-18T04:41:03;10.25;;;8.23;;
33266;SDS011;19638;49.080;11.896;2023-09-18T04:45:08;12.07;;;8.77;;
33266;SDS011;19638;49.080;11.896;2023-09-18T04:49:18;11.25;;;8.57;;
33266;SDS011;19638;49.080;11.896;2023-09-18T04:53:21;9.82;;;8.18;;
33266;SDS011;19638;49.080;11.896;2023-09-18T04:57:27;12.05;;;8.55;;
33266;SDS011;19638;49.080;11.896;2023-09-18T05:01:31;11.18;;;8.50;;
33266;SDS011;19638;49.080;11.896;2023-09-18T05:05:38;9.75;;;8.05;;
33266;SDS011;19638;49.080;11.896;2023-09-18T05:09:44;11.05;;;7.90;;
33266;SDS011;19638;49.080;11.896;2023-09-18T05:13:49;11.27;;;8.18;;
33266;SDS011;19638;49.080;11.896;2023-09-18T05:17:55;12.82;;;8.45;;
33266;SDS011;19638;49.080;11.896;2023-09-18T05:22:05;12.02;;;8.02;;
33266;SDS011;19638;49.080;11.896;2023-09-18T05:26:09;10.82;;;8.15;;
33266;SDS011;19638;49.080;11.896;2023-09-18T05:30:18;13.68;;;8.02;;
33266;SDS011;19638;49.080;11.896;2023-09-18T05:34:27;10.20;;;8.13;;
33266;SDS011;19638;49.080;11.896;2023-09-18T05:38:30;11.95;;;7.53;;
33266;SDS011;19638;49.080;11.896;2023-09-18T05:42:36;8.70;;;7.55;;
33266;SDS011;19638;49.080;11.896;2023-09-18T05:46:41;9.60;;;7.60;;
33266;SDS011;19638;49.080;11.896;2023-09-18T05:50:44;11.07;;;7.45;;
33266;SDS011;19638;49.080;11.896;2023-09-18T05:54:50;12.68;;;7.75;;
33266;SDS011;19638;49.080;11.896;2023-09-18T05:58:54;13.02;;;7.30;;
33266;SDS011;19638;49.080;11.896;2023-09-18T06:03:00;11.00;;;6.97;;
33266;SDS011;19638;49.080;11.896;2023-09-18T06:07:04;8.85;;;7.13;;
33266;SDS011;19638;49.080;11.896;2023-09-18T06:11:08;8.50;;;6.47;;
33266;SDS011;19638;49.080;11.896;2023-09-18T06:15:11;7.50;;;6.45;;
33266;SDS011;19638;49.080;11.896;2023-09-18T06:19:17;8.13;;;6.68;;
33266;SDS011;19638;49.080;11.896;2023-09-18T06:23:24;8.18;;;6.72;;
33266;SDS011;19638;49.080;11.896;2023-09-18T06:27:27;6.90;;;6.18;;
33266;SDS011;19638;49.080;11.896;2023-09-18T06:31:30;8.93;;;6.40;;
33266;SDS011;19638;49.080;11.896;2023-09-18T06:35:35;10.88;;;6.32;;
33266;SDS011;19638;49.080;11.896;2023-09-18T06:39:40;8.82;;;5.95;;
33266;SDS011;19638;49.080;11.896;2023-09-18T06:43:45;10.35;;;6.75;;
33266;SDS011;19638;49.080;11.896;2023-09-18T06:47:48;14.98;;;5.60;;
33266;SDS011;19638;49.080;11.896;2023-09-18T06:51:53;7.30;;;6.20;;
33266;SDS011;19638;49.080;11.896;2023-09-18T06:55:57;10.65;;;6.15;;
33266;SDS011;19638;49.080;11.896;2023-09-18T07:00:00;8.68;;;6.07;;
33266;SDS011;19638;49.080;11.896;2023-09-18T07:04:06;6.78;;;6.13;;
33266;SDS011;19638;49.080;11.896;2023-09-18T07:08:11;9.90;;;6.30;;
33266;SDS011;19638;49.080;11.896;2023-09-18T07:12:16;9.63;;;6.22;;
33266;SDS011;19638;49.080;11.896;2023-09-18T07:16:22;6.57;;;5.97;;
33266;SDS011;19638;49.080;11.896;2023-09-18T07:20:25;8.40;;;6.50;;
33266;SDS011;19638;49.080;11.896;2023-09-18T07:24:30;8.55;;;6.28;;
33266;SDS011;19638;49.080;11.896;2023-09-18T07:28:35;7.50;;;6.30;;
33266;SDS011;19638;49.080;11.896;2023-09-18T07:32:40;8.07;;;6.70;;
33266;SDS011;19638;49.080;11.896;2023-09-18T07:36:43;6.95;;;6.25;;
33266;SDS011;19638;49.080;11.896;2023-09-18T07:40:49;9.55;;;6.05;;
33266;SDS011;19638;49.080;11.896;2023-09-18T07:44:52;6.53;;;5.82;;
33266;SDS011;19638;49.080;11.896;2023-09-18T07:49:00;8.13;;;5.88;;
33266;SDS011;19638;49.080;11.896;2023-09-18T07:53:03;8.07;;;5.72;;
33266;SDS011;19638;49.080;11.896;2023-09-18T07:57:07;7.07;;;5.13;;
33266;SDS011;19638;49.080;11.896;2023-09-18T08:01:13;6.43;;;5.35;;
33266;SDS011;19638;49.080;11.896;2023-09-18T08:05:18;7.15;;;5.50;;
33266;SDS011;19638;49.080;11.896;2023-09-18T08:09:21;6.03;;;5.43;;
33266;SDS011;19638;49.080;11.896;2023-09-18T08:13:29;9.30;;;5.90;;
33266;SDS011;19638;49.080;11.896;2023-09-18T08:17:34;5.68;;;5.07;;
33266;SDS011;19638;49.080;11.896;2023-09-18T08:21:40;6.20;;;4.70;;
33266;SDS011;19638;49.080;11.896;2023-09-18T08:25:47;8.30;;;5.68;;
33266;SDS011;19638;49.080;11.896;2023-09-18T08:29:54;8.30;;;4.93;;
33266;SDS011;19638;49.080;11.896;2023-09-18T08:34:00;5.10;;;4.60;;
33266;SDS011;19638;49.080;11.896;2023-09-18T08:38:06;6.15;;;4.88;;
33266;SDS011;19638;49.080;11.896;2023-09-18T08:42:19;9.23;;;4.43;;
33266;SDS011;19638;49.080;11.896;2023-09-18T08:46:24;6.85;;;4.07;;
33266;SDS011;19638;49.080;11.896;2023-09-18T08:50:28;5.43;;;4.60;;
33266;SDS011;19638;49.080;11.896;2023-09-18T08:54:37;7.47;;;4.32;;
33266;SDS011;19638;49.080;11.896;2023-09-18T08:58:40;8.02;;;4.20;;
33266;SDS011;19638;49.080;11.896;2023-09-18T09:02:45;8.27;;;4.47;;
33266;SDS011;19638;49.080;11.896;2023-09-18T09:06:55;9.52;;;4.22;;
33266;SDS011;19638;49.080;11.896;2023-09-18T09:11:03;11.85;;;4.38;;
33266;SDS011;19638;49.080;11.896;2023-09-18T09:15:10;6.80;;;3.55;;
33266;SDS011;19638;49.080;11.896;2023-09-18T09:19:27;9.90;;;4.07;;
33266;SDS011;19638;49.080;11.896;2023-09-18T09:23:44;11.85;;;3.65;;
33266;SDS011;19638;49.080;11.896;2023-09-18T09:27:55;10.13;;;3.83;;
33266;SDS011;19638;49.080;11.896;2023-09-18T09:32:11;5.22;;;3.65;;
33266;SDS011;19638;49.080;11.896;2023-09-18T09:36:17;7.80;;;4.30;;
33266;SDS011;19638;49.080;11.896;2023-09-18T09:40:22;10.25;;;3.63;;
33266;SDS011;19638;49.080;11.896;2023-09-18T09:44:26;8.40;;;3.75;;
33266;SDS011;19638;49.080;11.896;2023-09-18T09:48:35;5.88;;;3.28;;
33266;SDS011;19638;49.080;11.896;2023-09-18T09:52:46;12.82;;;3.53;;
33266;SDS011;19638;49.080;11.896;2023-09-18T09:56:51;12.23;;;4.15;;
33266;SDS011;19638;49.080;11.896;2023-09-18T10:00:55;7.95;;;3.88;;
33266;SDS011;19638;49.080;11.896;2023-09-18T10:05:12;14.60;;;4.10;;
33266;SDS011;19638;49.080;11.896;2023-09-18T10:09:19;10.80;;;3.22;;
33266;SDS011;19638;49.080;11.896;2023-09-18T10:13:32;8.30;;;3.45;;
33266;SDS011;19638;49.080;11.896;2023-09-18T10:17:43;12.23;;;3.38;;
33266;SDS011;19638;49.080;11.896;2023-09-18T10:21:53;10.15;;;2.92;;
33266;SDS011;19638;49.080;11.896;2023-09-18T10:26:14;10.70;;;4.03;;
33266;SDS011;19638;49.080;11.896;2023-09-18T10:30:27;10.05;;;3.45;;
33266;SDS011;19638;49.080;11.896;2023-09-18T10:34:31;9.65;;;3.08;;
33266;SDS011;19638;49.080;11.896;2023-09-18T10:38:38;7.75;;;2.63;;
33266;SDS011;19638;49.080;11.896;2023-09-18T10:42:47;6.25;;;2.40;;
33266;SDS011;19638;49.080;11.896;2023-09-18T10:46:52;9.90;;;3.15;;
33266;SDS011;19638;49.080;11.896;2023-09-18T10:50:55;8.30;;;2.17;;
33266;SDS011;19638;49.080;11.896;2023-09-18T10:55:05;12.35;;;2.70;;
33266;SDS011;19638;49.080;11.896;2023-09-18T10:59:13;10.30;;;2.35;;
33266;SDS011;19638;49.080;11.896;2023-09-18T11:03:18;8.50;;;2.60;;
33266;SDS011;19638;49.080;11.896;2023-09-18T11:07:25;6.43;;;2.55;;
33266;SDS011;19638;49.080;11.896;2023-09-18T11:11:28;8.60;;;2.75;;
33266;SDS011;19638;49.080;11.896;2023-09-18T11:15:43;5.80;;;2.60;;
33266;SDS011;19638;49.080;11.896;2023-09-18T11:19:47;9.45;;;2.70;;
33266;SDS011;19638;49.080;11.896;2023-09-18T11:23:58;8.48;;;2.75;;
33266;SDS011;19638;49.080;11.896;2023-09-18T11:28:03;9.13;;;2.50;;
33266;SDS011;19638;49.080;11.896;2023-09-18T11:32:10;8.50;;;3.05;;
33266;SDS011;19638;49.080;11.896;2023-09-18T11:36:14;9.00;;;2.80;;
33266;SDS011;19638;49.080;11.896;2023-09-18T11:40:32;9.68;;;3.25;;
33266;SDS011;19638;49.080;11.896;2023-09-18T11:44:40;9.70;;;2.70;;
33266;SDS011;19638;49.080;11.896;2023-09-18T11:48:48;7.80;;;2.33;;
33266;SDS011;19638;49.080;11.896;2023-09-18T11:52:55;6.88;;;2.60;;
33266;SDS011;19638;49.080;11.896;2023-09-18T11:57:02;10.13;;;2.63;;
33266;SDS011;19638;49.080;11.896;2023-09-18T12:01:10;4.70;;;2.28;;
33266;SDS011;19638;49.080;11.896;2023-09-18T12:05:26;10.90;;;2.28;;
33266;SDS011;19638;49.080;11.896;2023-09-18T12:09:32;3.67;;;2.08;;
33266;SDS011;19638;49.080;11.896;2023-09-18T12:13:36;9.93;;;2.42;;
33266;SDS011;19638;49.080;11.896;2023-09-18T12:17:43;10.63;;;2.10;;
33266;SDS011;19638;49.080;11.896;2023-09-18T12:21:50;2.38;;;1.52;;
33266;SDS011;19638;49.080;11.896;2023-09-18T12:25:58;6.80;;;1.63;;
33266;SDS011;19638;49.080;11.896;2023-09-18T12:30:03;6.40;;;1.90;;
33266;SDS011;19638;49.080;11.896;2023-09-18T12:34:13;3.67;;;1.67;;
33266;SDS011;19638;49.080;11.896;2023-09-18T12:38:18;4.10;;;1.30;;
33266;SDS011;19638;49.080;11.896;2023-09-18T12:42:28;4.57;;;1.75;;
33266;SDS011;19638;49.080;11.896;2023-09-18T12:46:37;7.82;;;2.75;;
33266;SDS011;19638;49.080;11.896;2023-09-18T12:50:45;4.05;;;1.60;;
33266;SDS011;19638;49.080;11.896;2023-09-18T12:54:49;3.58;;;1.35;;
33266;SDS011;19638;49.080;11.896;2023-09-18T12:58:57;6.10;;;1.40;;
33266;SDS011;19638;49.080;11.896;2023-09-18T13:03:16;3.58;;;1.95;;
33266;SDS011;19638;49.080;11.896;2023-09-18T13:07:22;6.30;;;1.75;;
33266;SDS011;19638;49.080;11.896;2023-09-18T13:11:30;2.92;;;1.50;;
33266;SDS011;19638;49.080;11.896;2023-09-18T13:15:35;5.00;;;1.58;;
33266;SDS011;19638;49.080;11.896;2023-09-18T13:19:42;1.98;;;1.30;;
33266;SDS011;19638;49.080;11.896;2023-09-18T13:23:49;2.85;;;1.27;;
33266;SDS011;19638;49.080;11.896;2023-09-18T13:27:58;2.60;;;1.40;;
33266;SDS011;19638;49.080;11.896;2023-09-18T13:32:03;2.00;;;1.23;;
33266;SDS011;19638;49.080;11.896;2023-09-18T13:36:07;1.70;;;1.20;;
33266;SDS011;19638;49.080;11.896;2023-09-18T13:40:10;2.78;;;1.20;;
33266;SDS011;19638;49.080;11.896;2023-09-18T13:44:18;3.97;;;1.33;;
33266;SDS011;19638;49.080;11.896;2023-09-18T13:48:23;2.10;;;1.63;;
33266;SDS011;19638;49.080;11.896;2023-09-18T13:52:27;3.03;;;1.27;;
33266;SDS011;19638;49.080;11.896;2023-09-18T13:56:30;1.27;;;1.17;;
33266;SDS011;19638;49.080;11.896;2023-09-18T14:00:35;0.90;;;0.90;;
33266;SDS011;19638;49.080;11.896;2023-09-18T14:04:40;2.53;;;1.65;;
33266;SDS011;19638;49.080;11.896;2023-09-18T14:08:43;1.48;;;1.00;;
33266;SDS011;19638;49.080;11.896;2023-09-18T14:12:47;1.92;;;1.00;;
33266;SDS011;19638;49.080;11.896;2023-09-18T14:16:52;1.17;;;1.10;;
33266;SDS011;19638;49.080;11.896;2023-09-18T14:21:01;2.15;;;1.30;;
33266;SDS011;19638;49.080;11.896;2023-09-18T14:25:07;2.33;;;1.23;;
33266;SDS011;19638;49.080;11.896;2023-09-18T14:29:15;3.40;;;1.55;;
33266;SDS011;19638;49.080;11.896;2023-09-18T14:33:23;1.83;;;1.38;;
33266;SDS011;19638;49.080;11.896;2023-09-18T14:37:26;1.60;;;1.45;;
33266;SDS011;19638;49.080;11.896;2023-09-18T14:41:30;3.90;;;1.88;;
33266;SDS011;19638;49.080;11.896;2023-09-18T14:45:36;3.40;;;1.30;;
33266;SDS011;19638;49.080;11.896;2023-09-18T14:49:43;5.03;;;1.60;;
33266;SDS011;19638;49.080;11.896;2023-09-18T14:53:52;3.65;;;1.60;;
33266;SDS011;19638;49.080;11.896;2023-09-18T14:57:59;5.25;;;1.73;;
33266;SDS011;19638;49.080;11.896;2023-09-18T15:02:02;1.77;;;1.45;;
33266;SDS011;19638;49.080;11.896;2023-09-18T15:06:07;2.30;;;1.20;;
33266;SDS011;19638;49.080;11.896;2023-09-18T15:10:11;2.85;;;1.40;;
33266;SDS011;19638;49.080;11.896;2023-09-18T15:14:16;3.53;;;1.60;;
33266;SDS011;19638;49.080;11.896;2023-09-18T15:18:22;5.03;;;1.45;;
33266;SDS011;19638;49.080;11.896;2023-09-18T15:22:26;1.65;;;1.55;;
33266;SDS011;19638;49.080;11.896;2023-09-18T15:26:33;2.60;;;1.50;;
33266;SDS011;19638;49.080;11.896;2023-09-18T15:30:41;3.70;;;1.52;;
33266;SDS011;19638;49.080;11.896;2023-09-18T15:34:44;1.40;;;1.30;;
33266;SDS011;19638;49.080;11.896;2023-09-18T15:38:51;3.00;;;1.38;;
33266;SDS011;19638;49.080;11.896;2023-09-18T15:43:01;1.67;;;1.40;;
33266;SDS011;19638;49.080;11.896;2023-09-18T15:47:07;2.13;;;1.50;;
33266;SDS011;19638;49.080;11.896;2023-09-18T15:51:16;5.90;;;1.67;;
33266;SDS011;19638;49.080;11.896;2023-09-18T15:55:22;2.85;;;1.50;;
33266;SDS011;19638;49.080;11.896;2023-09-18T15:59:31;3.00;;;1.60;;
33266;SDS011;19638;49.080;11.896;2023-09-18T16:03:34;4.82;;;1.60;;
33266;SDS011;19638;49.080;11.896;2023-09-18T16:07:39;2.15;;;1.60;;
33266;SDS011;19638;49.080;11.896;2023-09-18T16:11:45;5.70;;;1.70;;
33266;SDS011;19638;49.080;11.896;2023-09-18T16:15:49;2.95;;;1.65;;
33266;SDS011;19638;49.080;11.896;2023-09-18T16:19:52;5.65;;;1.98;;
33266;SDS011;19638;49.080;11.896;2023-09-18T16:23:56;3.75;;;2.40;;
33266;SDS011;19638;49.080;11.896;2023-09-18T16:28:01;3.22;;;2.08;;
33266;SDS011;19638;49.080;11.896;2023-09-18T16:32:06;3.25;;;2.05;;
33266;SDS011;19638;49.080;11.896;2023-09-18T16:36:09;2.03;;;1.88;;
33266;SDS011;19638;49.080;11.896;2023-09-18T16:40:15;8.93;;;2.53;;
33266;SDS011;19638;49.080;11.896;2023-09-18T16:44:22;4.97;;;2.13;;
33266;SDS011;19638;49.080;11.896;2023-09-18T16:48:28;3.30;;;2.45;;
33266;SDS011;19638;49.080;11.896;2023-09-18T16:52:32;7.82;;;2.78;;
33266;SDS011;19638;49.080;11.896;2023-09-18T16:56:37;9.10;;;2.85;;
33266;SDS011;19638;49.080;11.896;2023-09-18T17:00:42;7.18;;;3.60;;
33266;SDS011;19638;49.080;11.896;2023-09-18T17:04:45;6.45;;;3.50;;
33266;SDS011;19638;49.080;11.896;2023-09-18T17:08:57;7.50;;;4.10;;
33266;SDS011;19638;49.080;11.896;2023-09-18T17:13:00;5.75;;;4.07;;
33266;SDS011;19638;49.080;11.896;2023-09-18T17:17:06;8.43;;;5.43;;
33266;SDS011;19638;49.080;11.896;2023-09-18T17:21:13;9.77;;;5.72;;
33266;SDS011;19638;49.080;11.896;2023-09-18T17:25:17;10.80;;;5.75;;
33266;SDS011;19638;49.080;11.896;2023-09-18T17:29:20;9.93;;;5.13;;
33266;SDS011;19638;49.080;11.896;2023-09-18T17:33:28;9.93;;;4.93;;
33266;SDS011;19638;49.080;11.896;2023-09-18T17:37:31;6.22;;;4.75;;
33266;SDS011;19638;49.080;11.896;2023-09-18T17:41:35;8.88;;;4.47;;
33266;SDS011;19638;49.080;11.896;2023-09-18T17:45:41;8.88;;;4.82;;
33266;SDS011;19638;49.080;11.896;2023-09-18T17:49:49;13.50;;;5.50;;
33266;SDS011;19638;49.080;11.896;2023-09-18T17:53:52;11.18;;;5.72;;
33266;SDS011;19638;49.080;11.896;2023-09-18T17:57:57;10.95;;;6.18;;
33266;SDS011;19638;49.080;11.896;2023-09-18T18:02:03;11.80;;;5.95;;
33266;SDS011;19638;49.080;11.896;2023-09-18T18:06:11;15.13;;;6.15;;
33266;SDS011;19638;49.080;11.896;2023-09-18T18:10:16;13.23;;;5.80;;
33266;SDS011;19638;49.080;11.896;2023-09-18T18:14:19;9.77;;;5.85;;
33266;SDS011;19638;49.080;11.896;2023-09-18T18:18:23;11.23;;;5.47;;
33266;SDS011;19638;49.080;11.896;2023-09-18T18:22:28;13.05;;;5.70;;
33266;SDS011;19638;49.080;11.896;2023-09-18T18:26:39;13.25;;;5.68;;
33266;SDS011;19638;49.080;11.896;2023-09-18T18:30:44;12.98;;;5.80;;
33266;SDS011;19638;49.080;11.896;2023-09-18T18:34:52;16.05;;;5.25;;
33266;SDS011;19638;49.080;11.896;2023-09-18T18:38:58;12.27;;;5.65;;
33266;SDS011;19638;49.080;11.896;2023-09-18T18:43:06;14.10;;;5.60;;
33266;SDS011;19638;49.080;11.896;2023-09-18T18:47:09;10.52;;;4.53;;
33266;SDS011;19638;49.080;11.896;2023-09-18T18:51:13;8.00;;;4.70;;
33266;SDS011;19638;49.080;11.896;2023-09-18T18:55:29;10.50;;;6.00;;
33266;SDS011;19638;49.080;11.896;2023-09-18T18:59:34;13.77;;;5.43;;
33266;SDS011;19638;49.080;11.896;2023-09-18T19:03:41;10.88;;;5.03;;
33266;SDS011;19638;49.080;11.896;2023-09-18T19:07:47;10.52;;;5.53;;
33266;SDS011;19638;49.080;11.896;2023-09-18T19:11:55;10.95;;;5.00;;
33266;SDS011;19638;49.080;11.896;2023-09-18T19:16:01;14.20;;;5.82;;
33266;SDS011;19638;49.080;11.896;2023-09-18T19:20:06;11.10;;;5.68;;
33266;SDS011;19638;49.080;11.896;2023-09-18T19:24:13;10.00;;;5.47;;
33266;SDS011;19638;49.080;11.896;2023-09-18T19:28:19;14.82;;;5.15;;
33266;SDS011;19638;49.080;11.896;2023-09-18T19:32:31;14.73;;;5.43;;
33266;SDS011;19638;49.080;11.896;2023-09-18T19:36:34;9.23;;;4.85;;
33266;SDS011;19638;49.080;11.896;2023-09-18T19:40:42;15.02;;;4.95;;
33266;SDS011;19638;49.080;11.896;2023-09-18T19:44:48;9.70;;;4.68;;
33266;SDS011;19638;49.080;11.896;2023-09-18T19:48:52;12.07;;;4.95;;
33266;SDS011;19638;49.080;11.896;2023-09-18T19:52:55;11.05;;;5.05;;
33266;SDS011;19638;49.080;11.896;2023-09-18T19:57:01;8.10;;;5.40;;
33266;SDS011;19638;49.080;11.896;2023-09-18T20:01:06;13.35;;;5.50;;
33266;SDS011;19638;49.080;11.896;2023-09-18T20:05:12;11.50;;;4.75;;
33266;SDS011;19638;49.080;11.896;2023-09-18T20:09:17;9.57;;;4.88;;
33266;SDS011;19638;49.080;11.896;2023-09-18T20:13:20;12.05;;;4.55;;
33266;SDS011;19638;49.080;11.896;2023-09-18T20:17:25;17.48;;;4.82;;
33266;SDS011;19638;49.080;11.896;2023-09-18T20:21:28;9.43;;;4.85;;
33266;SDS011;19638;49.080;11.896;2023-09-18T20:25:32;7.78;;;4.53;;
33266;SDS011;19638;49.080;11.896;2023-09-18T20:29:37;11.18;;;4.90;;
33266;SDS011;19638;49.080;11.896;2023-09-18T20:33:42;9.88;;;4.28;;
33266;SDS011;19638;49.080;11.896;2023-09-18T20:37:45;11.30;;;4.45;;
33266;SDS011;19638;49.080;11.896;2023-09-18T20:41:48;6.30;;;3.97;;
33266;SDS011;19638;49.080;11.896;2023-09-18T20:45:53;13.57;;;4.22;;
33266;SDS011;19638;49.080;11.896;2023-09-18T20:49:58;11.35;;;4.72;;
33266;SDS011;19638;49.080;11.896;2023-09-18T20:54:04;7.32;;;3.72;;
33266;SDS011;19638;49.080;11.896;2023-09-18T20:58:10;7.85;;;3.50;;
33266;SDS011;19638;49.080;11.896;2023-09-18T21:02:14;7.65;;;3.58;;
33266;SDS011;19638;49.080;11.896;2023-09-18T21:06:20;8.93;;;3.78;;
33266;SDS011;19638;49.080;11.896;2023-09-18T21:10:23;6.43;;;3.40;;
33266;SDS011;19638;49.080;11.896;2023-09-18T21:14:34;9.00;;;3.60;;
33266;SDS011;19638;49.080;11.896;2023-09-18T21:18:37;6.47;;;3.50;;
33266;SDS011;19638;49.080;11.896;2023-09-18T21:22:45;5.90;;;3.63;;
33266;SDS011;19638;49.080;11.896;2023-09-18T21:26:49;10.30;;;3.90;;
33266;SDS011;19638;49.080;11.896;2023-09-18T21:31:05;9.27;;;4.13;;
33266;SDS011;19638;49.080;11.896;2023-09-18T21:35:09;8.63;;;3.80;;
33266;SDS011;19638;49.080;11.896;2023-09-18T21:39:21;5.82;;;3.33;;
33266;SDS011;19638;49.080;11.896;2023-09-18T21:43:24;10.85;;;2.90;;
33266;SDS011;19638;49.080;11.896;2023-09-18T21:47:30;7.45;;;3.30;;
33266;SDS011;19638;49.080;11.896;2023-09-18T21:51:36;9.05;;;3.72;;
33266;SDS011;19638;49.080;11.896;2023-09-18T21:55:43;6.75;;;3.22;;
33266;SDS011;19638;49.080;11.896;2023-09-18T21:59:47;4.30;;;3.03;;
33266;SDS011;19638;49.080;11.896;2023-09-18T22:03:52;5.05;;;2.92;;
33266;SDS011;19638;49.080;11.896;2023-09-18T22:07:55;4.65;;;2.80;;
33266;SDS011;19638;49.080;11.896;2023-09-18T22:12:03;6.60;;;2.78;;
33266;SDS011;19638;49.080;11.896;2023-09-18T22:16:09;8.35;;;3.05;;
33266;SDS011;19638;49.080;11.896;2023-09-18T22:20:14;6.78;;;2.80;;
33266;SDS011;19638;49.080;11.896;2023-09-18T22:24:18;3.80;;;2.78;;
33266;SDS011;19638;49.080;11.896;2023-09-18T22:28:23;10.15;;;3.00;;
33266;SDS011;19638;49.080;11.896;2023-09-18T22:32:29;7.03;;;2.50;;
33266;SDS011;19638;49.080;11.896;2023-09-18T22:36:36;3.70;;;2.70;;
33266;SDS011;19638;49.080;11.896;2023-09-18T22:58:28;4.80;;;2.90;;
33266;SDS011;19638;49.080;11.896;2023-09-18T23:02:32;6.45;;;2.72;;
33266;SDS011;19638;49.080;11.896;2023-09-18T23:06:45;4.05;;;2.80;;
33266;SDS011;19638;49.080;11.896;2023-09-18T23:10:52;2.95;;;2.65;;
33266;SDS011;19638;49.080;11.896;2023-09-18T23:15:00;8.25;;;2.92;;
33266;SDS011;19638;49.080;11.896;2023-09-18T23:19:11;9.55;;;2.80;;
33266;SDS011;19638;49.080;11.896;2023-09-18T23:23:16;5.70;;;2.75;;
33266;SDS011;19638;49.080;11.896;2023-09-18T23:27:22;3.95;;;2.60;;
33266;SDS011;19638;49.080;11.896;2023-09-18T23:31:32;3.97;;;2.70;;
33266;SDS011;19638;49.080;11.896;2023-09-18T23:35:35;4.90;;;2.75;;
33266;SDS011;19638;49.080;11.896;2023-09-18T23:39:39;3.97;;;3.05;;
33266;SDS011;19638;49.080;11.896;2023-09-18T23:43:45;6.13;;;3.00;;
33266;SDS011;19638;49.080;11.896;2023-09-18T23:47:49;5.25;;;2.97;;
33266;SDS011;19638;49.080;11.896;2023-09-18T23:51:54;7.70;;;3.03;;
33266;SDS011;19638;49.080;11.896;2023-09-18T23:56:04;6.47;;;3.25;;
